Time;durP1;ratioP1;P1;durP2;ratioP2;P2;SDS_P1;SDS_P2;PMS_P1;PMS_P2;Temp;Humidity;BMP_temperature;BMP_pressure;BME280_temperature;BME280_humidity;BME280_pressure;Samples;Min_cycle;Max_cycle;Signal;HPM_P1;HPM_P2
2021/03/08 00:01:10;;;;;;;14.63;7.97;;;;;;;3.43;54.93;100311.50;4879706;28;97452;-75
2021/03/08 00:03:36;;;;;;;12.17;6.53;;;;;;;3.49;55.36;100321.00;4876450;28;97939;-76
2021/03/08 00:06:02;;;;;;;11.07;6.70;;;;;;;3.47;56.53;100318.44;4860262;28;97271;-76
2021/03/08 00:08:27;;;;;;;11.80;7.10;;;;;;;3.36;58.49;100318.47;4860113;28;97028;-75
2021/03/08 00:10:53;;;;;;;11.93;6.43;;;;;;;3.36;59.06;100320.22;4859222;28;101084;-76
2021/03/08 00:13:19;;;;;;;10.30;7.33;;;;;;;3.35;60.13;100318.50;4875786;28;97922;-76
2021/03/08 00:15:45;;;;;;;11.93;7.53;;;;;;;3.31;60.77;100327.16;4875208;28;97076;-76
2021/03/08 00:18:10;;;;;;;12.90;6.70;;;;;;;3.33;61.47;100325.41;4860348;28;97258;-76
2021/03/08 00:20:36;;;;;;;13.33;7.67;;;;;;;3.27;62.06;100328.91;4859349;28;101150;-78
2021/03/08 00:23:02;;;;;;;10.77;6.80;;;;;;;3.31;62.06;100322.81;4859929;28;100993;-76
2021/03/08 00:25:30;;;;;;;12.33;6.53;;;;;;;3.28;62.22;100327.16;4860457;28;97054;-75
2021/03/08 00:27:56;;;;;;;12.40;7.07;;;;;;;3.29;62.38;100326.31;4850182;28;97188;-76
2021/03/08 00:30:22;;;;;;;10.77;6.57;;;;;;;3.33;62.72;100322.81;4853301;28;101474;-75
2021/03/08 00:32:48;;;;;;;12.47;7.67;;;;;;;3.35;62.73;100326.28;4878028;28;98236;-76
2021/03/08 00:35:15;;;;;;;10.43;7.30;;;;;;;3.30;62.96;100315.06;4878655;28;96809;-76
2021/03/08 00:37:42;;;;;;;11.37;6.77;;;;;;;3.14;63.79;100324.63;4893919;28;96899;-75
2021/03/08 00:40:11;;;;;;;13.93;8.00;;;;;;;3.12;63.83;100328.97;4885097;28;98615;-75
2021/03/08 00:42:38;;;;;;;10.73;6.63;;;;;;;3.10;64.45;100325.50;4843412;28;101209;-76
2021/03/08 00:45:06;;;;;;;9.47;7.17;;;;;;;3.05;64.77;100327.25;4860156;28;97171;-77
2021/03/08 00:47:32;;;;;;;10.40;7.07;;;;;;;3.03;65.41;100321.22;4844116;28;97308;-82
2021/03/08 00:49:59;;;;;;;11.10;7.63;;;;;;;3.09;64.84;100328.97;4859813;28;101776;-77
2021/03/08 00:52:25;;;;;;;11.47;7.00;;;;;;;3.02;65.28;100320.34;4851713;28;100853;-75
2021/03/08 00:54:51;;;;;;;16.17;8.13;;;;;;;3.01;65.26;100322.94;4862500;28;96764;-76
2021/03/08 00:57:19;;;;;;;13.43;7.57;;;;;;;2.97;65.59;100322.09;4861673;28;97353;-76
2021/03/08 00:59:48;;;;;;;10.00;7.47;;;;;;;2.98;66.13;100317.78;4858731;28;101685;-76
2021/03/08 01:02:14;;;;;;;15.53;8.13;;;;;;;3.00;65.79;100316.03;4864434;28;101072;-75
2021/03/08 01:04:40;;;;;;;16.07;7.60;;;;;;;3.01;65.73;100312.56;4862524;28;97194;-75
2021/03/08 01:07:06;;;;;;;11.03;7.17;;;;;;;3.08;65.75;100306.47;4878738;28;96963;-78
2021/03/08 01:09:32;;;;;;;10.37;7.57;;;;;;;3.04;65.91;100303.03;4893966;28;100593;-84
2021/03/08 01:12:00;;;;;;;14.30;8.23;;;;;;;3.06;65.76;100305.66;4875246;28;101729;-75
2021/03/08 01:14:29;;;;;;;14.47;7.97;;;;;;;3.08;66.15;100309.06;4871729;28;97137;-76
2021/03/08 01:16:55;;;;;;;16.20;8.80;;;;;;;3.03;66.11;100303.06;4878004;28;97137;-75
2021/03/08 01:19:20;;;;;;;18.23;8.83;;;;;;;3.02;66.09;100302.19;4881648;28;101231;-75
2021/03/08 01:21:46;;;;;;;14.43;8.40;;;;;;;3.02;66.48;100297.00;4876940;28;101524;-75
2021/03/08 01:24:12;;;;;;;14.50;8.37;;;;;;;3.03;66.21;100301.31;4878339;28;96759;-75
2021/03/08 01:26:37;;;;;;;11.43;8.00;;;;;;;3.04;66.55;100292.66;4877182;28;97013;-75
2021/03/08 01:29:03;;;;;;;12.80;8.00;;;;;;;3.00;66.30;100298.75;4878100;28;101255;-76
2021/03/08 01:31:29;;;;;;;15.30;8.40;;;;;;;3.05;66.20;100296.13;4888167;28;98282;-75
2021/03/08 01:33:55;;;;;;;12.27;9.40;;;;;;;3.01;66.58;100290.09;4843157;28;96854;-77
2021/03/08 01:36:20;;;;;;;14.37;8.47;;;;;;;2.99;67.20;100286.63;4881322;28;96917;-77
2021/03/08 01:38:46;;;;;;;13.47;8.67;;;;;;;3.01;66.72;100284.91;4893557;28;97418;-75
2021/03/08 01:41:12;;;;;;;13.43;8.57;;;;;;;3.00;67.11;100287.50;4872357;28;101428;-76
2021/03/08 01:43:38;;;;;;;12.67;9.03;;;;;;;3.05;66.86;100275.38;4874342;28;96644;-76
2021/03/08 01:46:04;;;;;;;12.20;8.80;;;;;;;2.94;67.50;100272.84;4859320;28;97047;-75
2021/03/08 01:48:29;;;;;;;13.53;8.63;;;;;;;3.01;66.99;100281.44;4842907;28;100729;-75
2021/03/08 01:50:55;;;;;;;12.17;8.90;;;;;;;2.96;67.43;100284.03;4876715;28;100836;-75
2021/03/08 01:53:21;;;;;;;15.10;10.20;;;;;;;3.01;67.05;100276.25;4877862;28;96846;-75
2021/03/08 01:55:47;;;;;;;13.37;9.80;;;;;;;3.01;67.39;100276.25;4859134;28;96915;-75
2021/03/08 01:58:13;;;;;;;13.30;10.40;;;;;;;2.97;67.40;100284.91;4859036;28;98017;-75
2021/03/08 02:00:39;;;;;;;18.63;10.27;;;;;;;2.87;67.38;100279.75;4858163;28;98009;-77
2021/03/08 02:03:05;;;;;;;16.40;10.00;;;;;;;2.85;67.54;100278.91;4875059;28;97144;-75
2021/03/08 02:05:34;;;;;;;16.43;10.27;;;;;;;2.86;67.81;100278.03;4859764;28;97635;-75
2021/03/08 02:08:02;;;;;;;16.03;10.37;;;;;;;2.93;67.74;100277.13;4858543;28;101133;-75
2021/03/08 02:10:29;;;;;;;14.93;10.97;;;;;;;3.00;67.45;100270.22;4858662;28;100689;-75
2021/03/08 02:13:03;;;;;;;14.30;10.10;;;;;;;2.94;67.50;100276.28;4854377;29;96707;-75
2021/03/08 02:15:57;;;;;;;16.57;10.40;;;;;;;2.98;67.70;100273.69;4862934;28;97035;-77
2021/03/08 02:18:26;;;;;;;16.57;10.83;;;;;;;2.98;67.20;100271.09;4874016;28;101578;-75
2021/03/08 02:21:14;;;;;;;14.60;11.10;;;;;;;3.04;67.26;100273.66;4873613;28;97812;-75
2021/03/08 02:24:03;;;;;;;18.70;11.43;;;;;;;3.01;67.73;100266.75;4858237;28;96705;-76
2021/03/08 02:26:35;;;;;;;15.80;11.37;;;;;;;3.05;67.41;100272.78;4848638;28;96990;-76
2021/03/08 02:29:03;;;;;;;21.63;12.77;;;;;;;3.04;67.85;100271.06;4858509;28;101666;-76
2021/03/08 02:31:31;;;;;;;22.03;12.43;;;;;;;2.97;67.72;100271.94;4861281;28;101096;-75
2021/03/08 02:34:14;;;;;;;18.67;12.47;;;;;;;3.08;67.68;100262.38;4845841;28;96747;-76
2021/03/08 02:36:44;;;;;;;21.30;13.77;;;;;;;2.98;67.97;100260.72;4850514;28;96758;-76
2021/03/08 02:39:14;;;;;;;17.17;12.60;;;;;;;3.00;67.92;100266.78;4876830;28;99542;-75
2021/03/08 02:41:42;;;;;;;21.23;14.20;;;;;;;3.05;68.09;100267.59;4854556;28;101472;-76
2021/03/08 02:44:13;;;;;;;23.93;15.73;;;;;;;3.03;68.18;100259.84;4864630;28;97082;-75
2021/03/08 02:46:44;;;;;;;21.73;15.77;;;;;;;2.94;68.52;100270.25;4877629;28;96816;-76
2021/03/08 02:49:19;;;;;;;23.33;15.17;;;;;;;2.97;68.31;100270.22;4864628;28;101163;-75
2021/03/08 02:51:58;;;;;;;21.73;16.27;;;;;;;2.96;68.73;100273.66;4863526;28;101348;-76
2021/03/08 02:54:26;;;;;;;22.37;16.40;;;;;;;2.87;68.78;100273.72;4880637;28;97374;-75
2021/03/08 02:56:53;;;;;;;23.90;15.97;;;;;;;2.85;68.93;100267.66;4864259;28;97126;-75
2021/03/08 02:59:20;;;;;;;22.60;15.87;;;;;;;2.85;69.32;100265.06;4880307;28;101510;-76
2021/03/08 03:01:46;;;;;;;25.70;16.50;;;;;;;2.86;69.22;100272.00;4879088;28;101638;-75
2021/03/08 03:04:12;;;;;;;19.73;15.17;;;;;;;2.92;69.08;100270.25;4896134;28;97068;-77
2021/03/08 03:06:38;;;;;;;20.90;16.47;;;;;;;2.86;68.92;100267.66;4879261;28;97046;-75
2021/03/08 03:09:06;;;;;;;22.77;17.07;;;;;;;2.88;69.44;100278.91;4888430;28;97930;-75
2021/03/08 03:11:33;;;;;;;24.30;16.03;;;;;;;2.97;69.01;100277.13;4860822;28;101243;-75
2021/03/08 03:14:00;;;;;;;21.37;15.60;;;;;;;2.98;68.65;100281.47;4852216;29;96731;-75
2021/03/08 03:16:27;;;;;;;23.17;16.00;;;;;;;3.03;68.91;100285.78;4859503;28;97353;-75
2021/03/08 03:18:55;;;;;;;21.00;16.50;;;;;;;2.99;68.94;100291.81;4879313;28;97710;-75
2021/03/08 03:21:22;;;;;;;23.27;16.50;;;;;;;2.92;69.29;100296.16;4863851;28;101417;-75
2021/03/08 03:23:49;;;;;;;25.00;17.50;;;;;;;2.93;69.26;100297.88;4895526;28;96906;-75
2021/03/08 03:26:15;;;;;;;24.67;16.60;;;;;;;2.91;69.25;100304.81;4864260;28;97309;-75
2021/03/08 03:28:41;;;;;;;23.47;17.63;;;;;;;2.90;69.45;100297.03;4878629;28;101123;-75
2021/03/08 03:31:07;;;;;;;22.57;17.33;;;;;;;2.97;68.82;100297.88;4879622;28;97537;-75
2021/03/08 03:33:33;;;;;;;25.33;18.10;;;;;;;2.82;69.23;100297.09;4881022;28;96862;-75
2021/03/08 03:35:59;;;;;;;26.33;19.17;;;;;;;2.97;68.82;100297.88;4880194;28;96922;-75
2021/03/08 03:38:26;;;;;;;27.97;19.07;;;;;;;2.98;68.86;100302.22;4879690;28;100824;-75
2021/03/08 03:40:51;;;;;;;24.07;18.13;;;;;;;2.93;68.94;100300.47;4878858;28;101086;-76
2021/03/08 03:43:17;;;;;;;26.97;20.00;;;;;;;2.95;69.26;100308.25;4895369;28;97338;-75
2021/03/08 03:45:43;;;;;;;27.40;20.23;;;;;;;2.90;69.31;100307.41;4879302;28;96975;-75
2021/03/08 03:48:09;;;;;;;34.80;25.03;;;;;;;2.86;69.46;100316.06;4879683;28;97324;-76
2021/03/08 03:50:36;;;;;;;37.40;26.73;;;;;;;2.90;69.36;100310.84;4879845;28;97486;-75
2021/03/08 03:53:04;;;;;;;32.13;23.30;;;;;;;2.94;69.64;100320.38;4878348;28;96700;-76
2021/03/08 03:55:30;;;;;;;34.00;24.80;;;;;;;2.94;69.14;100315.19;4876002;28;97321;-78
2021/03/08 03:58:24;;;;;;;32.13;23.40;;;;;;;2.86;69.32;100319.53;4859949;28;101302;-75
2021/03/08 04:01:06;;;;;;;29.10;22.57;;;;;;;3.00;68.96;100324.69;4857303;28;101274;-76
2021/03/08 04:03:36;;;;;;;26.65;21.52;;;;;;;3.10;68.55;100323.75;4860905;28;97267;-75
2021/03/08 04:06:05;;;;;;;28.93;21.47;;;;;;;3.05;68.80;100335.03;4845335;28;96926;-75
2021/03/08 04:08:31;;;;;;;25.17;18.10;;;;;;;3.04;69.24;100336.75;4860511;28;101354;-75
2021/03/08 04:10:58;;;;;;;22.47;16.63;;;;;;;3.11;68.58;100332.41;4875952;28;97558;-77
2021/03/08 04:13:29;;;;;;;20.00;15.17;;;;;;;3.11;68.59;100332.41;4862723;28;96693;-77
2021/03/08 04:15:56;;;;;;;22.27;16.05;;;;;;;3.07;68.69;100338.47;4843558;28;97540;-77
2021/03/08 04:18:23;;;;;;;21.93;15.60;;;;;;;3.05;68.57;100343.66;4843801;28;101390;-75
2021/03/08 04:20:49;;;;;;;21.40;14.90;;;;;;;3.03;68.96;100342.81;4859644;28;97868;-75
2021/03/08 04:23:16;;;;;;;18.33;14.83;;;;;;;3.00;69.13;100350.63;4859975;28;97157;-75
2021/03/08 04:25:45;;;;;;;19.77;14.97;;;;;;;3.07;68.74;100343.66;4859595;28;96942;-76
2021/03/08 04:28:12;;;;;;;20.17;14.60;;;;;;;3.10;68.84;100357.47;4844349;28;101513;-76
2021/03/08 04:30:38;;;;;;;23.03;14.90;;;;;;;3.13;69.10;100354.88;4859789;28;97982;-81
2021/03/08 04:33:04;;;;;;;18.80;14.00;;;;;;;3.14;68.65;100361.81;4868478;28;96780;-75
2021/03/08 04:35:30;;;;;;;20.20;14.37;;;;;;;3.23;68.64;100358.31;4863779;28;96850;-76
2021/03/08 04:37:57;;;;;;;20.17;14.43;;;;;;;3.20;68.32;100363.53;4862016;28;101152;-76
2021/03/08 04:40:23;;;;;;;20.20;14.07;;;;;;;3.17;68.38;100366.09;4863291;28;101235;-76
2021/03/08 04:42:49;;;;;;;18.60;14.70;;;;;;;3.10;69.09;100356.63;4862203;28;97152;-76
2021/03/08 04:45:17;;;;;;;19.23;13.53;;;;;;;3.07;69.00;100369.59;4878691;28;97113;-76
2021/03/08 04:47:45;;;;;;;20.53;14.40;;;;;;;3.12;68.91;100378.25;4872137;28;101259;-76
2021/03/08 04:50:11;;;;;;;19.17;13.43;;;;;;;3.11;68.72;100381.69;4859894;28;97418;-76
2021/03/08 04:52:38;;;;;;;19.90;13.87;;;;;;;3.09;68.88;100378.25;4843082;28;96650;-83
2021/03/08 04:55:06;;;;;;;21.23;13.43;;;;;;;3.12;69.14;100391.22;4859672;28;98229;-76
2021/03/08 04:57:33;;;;;;;18.77;13.20;;;;;;;3.18;68.97;100391.19;4859601;28;101192;-76
2021/03/08 04:59:58;;;;;;;22.03;14.77;;;;;;;3.17;68.86;100381.66;4859216;28;101695;-76
2021/03/08 05:02:25;;;;;;;22.23;15.20;;;;;;;3.17;68.56;100395.53;4875640;28;96639;-76
2021/03/08 05:04:51;;;;;;;20.43;14.47;;;;;;;3.22;68.39;100394.63;4859525;28;97136;-77
2021/03/08 05:07:21;;;;;;;22.67;14.67;;;;;;;3.25;68.80;100390.28;4862115;28;101262;-76
2021/03/08 05:09:48;;;;;;;20.90;14.97;;;;;;;3.24;68.54;100398.97;4861227;28;100488;-76
2021/03/08 05:12:14;;;;;;;22.80;15.30;;;;;;;3.18;68.75;100394.66;4870892;28;96879;-77
2021/03/08 05:14:40;;;;;;;18.37;14.40;;;;;;;3.19;68.79;100398.09;4858501;28;96956;-83
2021/03/08 05:17:07;;;;;;;19.60;13.40;;;;;;;3.18;68.22;100394.66;4859303;28;98188;-77
2021/03/08 05:19:34;;;;;;;21.73;14.83;;;;;;;3.16;68.50;100395.53;4859366;28;98408;-76
2021/03/08 05:22:00;;;;;;;18.50;12.97;;;;;;;3.09;68.71;100407.66;4858482;28;96923;-76
2021/03/08 05:24:26;;;;;;;23.37;13.80;;;;;;;3.07;68.79;100404.19;4844251;28;97389;-75
2021/03/08 05:26:52;;;;;;;18.07;13.20;;;;;;;3.02;68.92;100405.06;4835335;29;101710;-75
2021/03/08 05:29:18;;;;;;;20.07;12.73;;;;;;;3.01;69.10;100406.78;4869942;28;97487;-75
2021/03/08 05:31:46;;;;;;;19.40;14.70;;;;;;;2.99;68.63;100403.31;4858150;28;96702;-75
2021/03/08 05:34:12;;;;;;;21.37;13.97;;;;;;;2.94;68.73;100418.06;4843686;28;96694;-75
2021/03/08 05:36:41;;;;;;;21.67;13.83;;;;;;;2.97;68.84;100418.06;4858078;28;101277;-81
2021/03/08 05:39:09;;;;;;;21.37;13.07;;;;;;;3.05;67.80;100418.88;4860458;28;98294;-78
2021/03/08 05:41:45;;;;;;;22.93;14.53;;;;;;;3.06;68.28;100414.56;4878221;28;96871;-75
2021/03/08 05:44:12;;;;;;;21.50;14.43;;;;;;;3.07;68.13;100418.88;4862290;28;96878;-76
2021/03/08 05:46:53;;;;;;;21.77;13.20;;;;;;;3.11;67.78;100429.28;4852698;28;102579;-81
2021/03/08 05:49:37;;;;;;;25.27;13.83;;;;;;;3.16;68.25;100429.25;4877205;28;97891;-75
2021/03/08 05:52:09;;;;;;;20.80;13.10;;;;;;;3.14;68.14;100430.97;4864287;28;96813;-76
2021/03/08 05:54:53;;;;;;;21.35;13.98;;;;;;;3.09;68.04;100443.97;4893932;28;96976;-76
2021/03/08 05:57:27;;;;;;;19.57;12.93;;;;;;;3.16;67.45;100435.28;4894354;28;98122;-75
2021/03/08 06:00:04;;;;;;;19.70;13.07;;;;;;;3.24;67.31;100440.47;4880730;28;97290;-76
2021/03/08 06:03:17;;;;;;;20.20;12.53;;;;;;;3.35;66.84;100443.91;4846511;28;97076;-77
2021/03/08 06:05:53;;;;;;;19.43;12.00;;;;;;;3.53;66.42;100449.91;4877124;28;96994;-76
2021/03/08 06:08:40;;;;;;;19.17;12.13;;;;;;;3.72;65.80;100450.69;4879896;28;97978;-75
2021/03/08 06:11:07;;;;;;;17.40;11.97;;;;;;;3.86;65.06;100449.75;4857792;28;101557;-78
2021/03/08 06:13:47;;;;;;;19.93;12.10;;;;;;;4.39;63.73;100449.47;4879959;28;96916;-76
2021/03/08 06:16:20;;;;;;;17.10;10.73;;;;;;;4.89;62.15;100467.31;4877566;28;96928;-76
2021/03/08 06:18:47;;;;;;;16.17;11.30;;;;;;;5.23;61.52;100469.59;4842625;28;100669;-76
2021/03/08 06:21:14;;;;;;;17.43;10.83;;;;;;;5.51;60.28;100469.31;4859090;28;99744;-76
2021/03/08 06:23:44;;;;;;;16.83;9.43;;;;;;;5.84;59.18;100476.72;4876674;28;96773;-84
2021/03/08 06:26:11;;;;;;;16.40;10.07;;;;;;;6.22;58.11;100474.53;4875786;28;97189;-77
2021/03/08 06:28:37;;;;;;;13.83;9.00;;;;;;;6.51;56.77;100479.34;4858955;28;101159;-76
2021/03/08 06:31:03;;;;;;;15.27;8.77;;;;;;;6.43;56.56;100489.03;4880367;28;101307;-76
2021/03/08 06:33:29;;;;;;;16.53;9.20;;;;;;;6.20;56.41;100495.44;4880803;28;96791;-76
2021/03/08 06:35:57;;;;;;;12.67;8.40;;;;;;;6.05;56.52;100490.41;4879736;28;97415;-77
2021/03/08 06:38:23;;;;;;;16.67;7.77;;;;;;;6.06;56.65;100507.78;4852882;28;101612;-76
2021/03/08 06:40:49;;;;;;;10.30;7.13;;;;;;;6.30;56.06;100509.19;4838825;28;101437;-76
2021/03/08 06:43:14;;;;;;;12.33;8.20;;;;;;;6.24;56.27;100512.75;4877494;28;97232;-77
2021/03/08 06:45:40;;;;;;;12.10;7.83;;;;;;;6.37;55.49;100517.78;4879718;28;97257;-82
2021/03/08 06:48:06;;;;;;;10.90;8.17;;;;;;;6.55;55.53;100520.16;4879544;28;101205;-77
2021/03/08 06:50:32;;;;;;;14.23;8.17;;;;;;;6.44;55.49;100524.66;4858470;28;101722;-75
2021/03/08 06:52:57;;;;;;;12.93;7.60;;;;;;;6.21;55.93;100524.97;4853710;28;97195;-75
2021/03/08 06:55:23;;;;;;;10.30;6.80;;;;;;;6.45;54.71;100539.41;4855167;28;97415;-76
2021/03/08 06:57:48;;;;;;;9.80;6.27;;;;;;;6.48;54.65;100536.75;4856039;28;101339;-76
2021/03/08 07:00:14;;;;;;;8.83;6.07;;;;;;;6.82;52.92;100539.75;4851824;28;100000;-75
2021/03/08 07:02:43;;;;;;;9.40;5.47;;;;;;;7.03;52.63;100535.94;4855513;28;97355;-84
2021/03/08 07:05:13;;;;;;;6.77;4.63;;;;;;;7.42;51.33;100542.25;4873211;28;96845;-76
2021/03/08 07:07:59;;;;;;;10.97;5.07;;;;;;;8.74;48.59;100539.63;4870985;28;98053;-76
2021/03/08 07:10:38;;;;;;;9.27;5.20;;;;;;;9.72;47.14;100549.41;4868478;28;100800;-76
2021/03/08 07:13:08;;;;;;;8.23;5.10;;;;;;;10.37;45.48;100543.25;4834895;28;96847;-76
2021/03/08 07:15:33;;;;;;;7.85;4.68;;;;;;;11.61;42.70;100551.53;4855159;28;98238;-78
2021/03/08 07:17:59;;;;;;;7.82;5.03;;;;;;;15.13;36.72;100554.47;4875671;28;101106;-75
2021/03/08 07:20:26;;;;;;;9.40;5.65;;;;;;;12.48;39.49;100555.41;4859266;28;98041;-76
2021/03/08 07:22:56;;;;;;;8.73;5.25;;;;;;;13.79;38.29;100563.25;4858396;28;96837;-76
2021/03/08 07:25:29;;;;;;;9.00;5.90;;;;;;;11.96;40.66;100553.81;4872334;28;96762;-76
2021/03/08 07:28:04;;;;;;;9.63;5.57;;;;;;;11.90;41.02;100564.56;4872859;28;98120;-76
2021/03/08 07:30:33;;;;;;;7.10;5.60;;;;;;;13.95;37.86;100560.78;4859789;28;100317;-76
2021/03/08 07:33:06;;;;;;;7.30;4.88;;;;;;;14.32;37.26;100566.22;4850351;28;97182;-75
2021/03/08 07:35:42;;;;;;;7.60;5.57;;;;;;;12.04;40.70;100561.41;4859094;28;96826;-76
2021/03/08 07:38:10;;;;;;;9.05;5.57;;;;;;;10.80;43.11;100566.44;4886775;28;101485;-76
2021/03/08 07:40:37;;;;;;;8.38;6.00;;;;;;;10.09;44.75;100566.75;4873927;28;98210;-79
2021/03/08 07:43:03;;;;;;;13.90;6.07;;;;;;;10.12;44.62;100572.78;4850487;29;97001;-77
2021/03/08 07:45:45;;;;;;;9.27;5.57;;;;;;;9.62;45.66;100567.13;4851954;28;97543;-76
2021/03/08 07:48:14;;;;;;;10.07;6.82;;;;;;;9.47;45.87;100570.16;4871868;28;98706;-75
2021/03/08 07:50:40;;;;;;;8.48;7.05;;;;;;;8.88;46.46;100562.88;4873226;28;97551;-78
2021/03/08 07:53:27;;;;;;;12.30;7.30;;;;;;;8.51;47.28;100581.13;4858308;28;96957;-77
2021/03/08 07:55:53;;;;;;;13.95;7.72;;;;;;;8.23;48.32;100592.16;4873990;28;97021;-77
2021/03/08 07:58:19;;;;;;;10.75;6.47;;;;;;;8.20;48.39;100589.56;4872922;28;98280;-75
2021/03/08 08:00:45;;;;;;;11.45;6.35;;;;;;;8.00;48.88;100589.97;4838819;28;101140;-76
2021/03/08 08:03:10;;;;;;;8.98;6.50;;;;;;;7.63;49.99;100589.78;4881495;28;97420;-78
2021/03/08 08:05:36;;;;;;;11.50;6.67;;;;;;;7.44;50.40;100587.47;4884017;28;97377;-76
2021/03/08 08:08:02;;;;;;;9.30;6.80;;;;;;;8.75;48.63;100598.91;4897294;28;98053;-75
2021/03/08 08:10:28;;;;;;;11.48;6.88;;;;;;;10.29;45.39;100588.06;4854203;28;97570;-75
2021/03/08 08:13:01;;;;;;;11.63;7.00;;;;;;;9.66;46.64;100600.25;4837999;28;97026;-75
2021/03/08 08:15:27;;;;;;;10.80;7.22;;;;;;;9.66;46.21;100600.25;4844300;28;96832;-75
2021/03/08 08:17:54;;;;;;;12.80;7.53;;;;;;;10.24;44.79;100596.94;4872043;28;101507;-75
2021/03/08 08:20:20;;;;;;;14.48;7.25;;;;;;;10.49;43.88;100587.47;4879024;28;101022;-75
2021/03/08 08:23:05;;;;;;;13.43;7.07;;;;;;;9.49;45.95;100602.44;4862202;28;97373;-80
2021/03/08 08:25:31;;;;;;;9.60;6.20;;;;;;;10.67;43.92;100600.97;4879017;28;97088;-75
2021/03/08 08:27:57;;;;;;;9.57;5.75;;;;;;;14.13;38.86;100590.78;4860759;28;101288;-75
2021/03/08 08:30:24;;;;;;;13.68;6.85;;;;;;;12.12;40.58;100598.84;4862642;28;101077;-76
2021/03/08 08:32:58;;;;;;;9.10;6.05;;;;;;;10.00;44.59;100612.44;4870946;28;97192;-76
2021/03/08 08:35:28;;;;;;;10.18;6.78;;;;;;;9.21;45.97;100615.34;4860661;28;97124;-75
2021/03/08 08:38:06;;;;;;;12.52;8.10;;;;;;;9.82;45.76;100623.44;4864131;28;98275;-81
2021/03/08 08:40:37;;;;;;;10.32;6.55;;;;;;;9.19;46.02;100614.50;4874350;28;98006;-80
2021/03/08 08:43:15;;;;;;;12.30;7.50;;;;;;;8.32;48.08;100625.06;4857496;28;97192;-82
2021/03/08 08:45:46;;;;;;;11.70;7.20;;;;;;;8.29;48.00;100633.88;4874097;28;97117;-82
2021/03/08 08:48:12;;;;;;;9.67;7.20;;;;;;;8.49;47.46;100627.38;4872987;28;97807;-81
2021/03/08 08:50:53;;;;;;;9.93;6.30;;;;;;;12.94;40.13;100619.50;4840825;28;101911;-81
2021/03/08 08:53:40;;;;;;;9.82;6.47;;;;;;;10.96;42.04;100621.94;4872714;28;97307;-81
2021/03/08 08:56:07;;;;;;;9.38;6.30;;;;;;;10.01;44.59;100631.69;4872903;28;97399;-80
2021/03/08 08:58:48;;;;;;;11.43;7.10;;;;;;;10.40;44.00;100627.13;4872870;28;101311;-74
2021/03/08 09:01:16;;;;;;;10.40;7.00;;;;;;;9.64;44.92;100643.13;4856409;28;97918;-77
2021/03/08 09:04:00;;;;;;;11.88;6.10;;;;;;;9.19;44.95;100640.69;4863923;28;96869;-74
2021/03/08 09:07:00;;;;;;;7.40;5.30;;;;;;;8.67;45.20;100640.13;4883494;28;98101;-76
2021/03/08 09:09:32;;;;;;;7.95;4.70;;;;;;;8.31;45.57;100645.16;4852593;28;101701;-75
2021/03/08 09:12:00;;;;;;;6.57;4.50;;;;;;;8.55;45.16;100643.84;4859178;28;101177;-75
2021/03/08 09:14:41;;;;;;;8.60;5.10;;;;;;;9.86;43.17;100644.31;4830367;28;97774;-77
2021/03/08 09:17:10;;;;;;;7.47;5.33;;;;;;;10.50;42.70;100635.59;4867952;28;98599;-76
2021/03/08 09:19:36;;;;;;;12.25;6.70;;;;;;;9.28;44.91;100645.75;4863359;28;98172;-78
2021/03/08 09:22:20;;;;;;;9.90;6.80;;;;;;;8.93;45.22;100646.53;4851049;28;97819;-75
2021/03/08 09:24:47;;;;;;;11.70;6.97;;;;;;;8.96;45.49;100652.56;4865952;28;96773;-74
2021/03/08 09:27:32;;;;;;;13.50;7.28;;;;;;;9.64;44.74;100657.09;4865906;28;96960;-74
2021/03/08 09:30:22;;;;;;;11.43;7.20;;;;;;;9.36;45.80;100648.16;4850173;28;101672;-77
2021/03/08 09:32:55;;;;;;;12.82;6.90;;;;;;;8.96;45.90;100652.56;4832341;28;101176;-75
2021/03/08 09:35:23;;;;;;;12.65;6.78;;;;;;;8.50;45.85;100660.53;4877280;28;97377;-76
2021/03/08 09:37:54;;;;;;;13.32;6.10;;;;;;;8.31;46.74;100666.06;4845252;28;97379;-77
2021/03/08 09:40:22;;;;;;;12.85;6.05;;;;;;;8.28;46.16;100666.13;4854477;28;100796;-75
2021/03/08 09:42:48;;;;;;;9.50;6.30;;;;;;;8.51;46.39;100665.72;4855246;28;100584;-75
2021/03/08 09:45:22;;;;;;;11.32;6.63;;;;;;;9.17;45.94;100669.56;4840151;28;97480;-76
2021/03/08 09:47:50;;;;;;;13.35;7.15;;;;;;;8.60;46.29;100672.53;4872079;28;97412;-76
2021/03/08 09:50:18;;;;;;;14.95;6.53;;;;;;;8.56;46.11;100676.97;4868547;28;97741;-74
2021/03/08 09:52:46;;;;;;;10.98;6.03;;;;;;;8.78;45.90;100689.59;4851069;28;98083;-74
2021/03/08 09:55:17;;;;;;;15.33;5.80;;;;;;;8.55;46.12;100684.81;4853790;28;96825;-74
2021/03/08 09:57:44;;;;;;;12.07;6.35;;;;;;;8.77;45.73;100691.34;4856576;28;98294;-75
2021/03/08 10:00:17;;;;;;;9.63;6.00;;;;;;;9.53;44.27;100688.78;4854853;28;101050;-75
2021/03/08 10:02:43;;;;;;;12.27;6.20;;;;;;;9.50;44.78;100691.47;4854795;28;101624;-74
2021/03/08 10:05:13;;;;;;;13.98;6.32;;;;;;;9.76;45.04;100690.00;4859174;28;96815;-74
2021/03/08 10:07:53;;;;;;;16.70;7.60;;;;;;;9.80;44.29;100698.63;4842281;29;96926;-79
2021/03/08 10:10:20;;;;;;;13.90;7.22;;;;;;;9.71;44.27;100692.72;4849534;29;101468;-76
2021/03/08 10:12:58;;;;;;;10.00;7.15;;;;;;;9.44;44.55;100693.38;4865027;28;97890;-76
2021/03/08 10:15:24;;;;;;;14.55;7.65;;;;;;;9.65;45.99;100689.38;4855744;28;96932;-73
2021/03/08 10:18:00;;;;;;;17.13;7.77;;;;;;;8.87;45.45;100697.25;4855422;28;97510;-76
2021/03/08 10:20:27;;;;;;;11.85;7.10;;;;;;;8.97;45.30;100700.56;4856938;28;98273;-74
2021/03/08 10:22:54;;;;;;;18.55;6.97;;;;;;;9.30;45.09;100697.19;4859933;28;100848;-74
2021/03/08 10:25:24;;;;;;;26.10;7.18;;;;;;;9.24;45.25;100693.84;4877801;28;96766;-77
2021/03/08 10:28:03;;;;;;;13.45;6.40;;;;;;;9.21;44.63;100700.00;4877537;28;97035;-78
2021/03/08 10:30:31;;;;;;;13.53;6.37;;;;;;;8.61;43.97;100695.19;4877275;28;100940;-77
2021/03/08 10:33:02;;;;;;;16.57;7.93;;;;;;;8.47;43.86;100705.94;4867316;28;101348;-78
2021/03/08 10:35:29;;;;;;;21.50;7.40;;;;;;;8.32;44.60;100701.81;4839524;28;96964;-77
2021/03/08 10:37:55;;;;;;;23.30;6.43;;;;;;;9.13;43.47;100696.69;4863274;28;96810;-77
2021/03/08 10:40:21;;;;;;;19.90;6.10;;;;;;;9.25;42.70;100698.19;4859464;28;101206;-80
2021/03/08 10:42:47;;;;;;;9.90;5.80;;;;;;;8.53;41.95;100705.81;4852415;28;101492;-80
2021/03/08 10:45:14;;;;;;;11.67;5.40;;;;;;;8.30;41.91;100702.75;4842679;28;97402;-79
2021/03/08 10:47:39;;;;;;;12.10;4.37;;;;;;;8.06;41.44;100697.06;4863278;28;96858;-77
2021/03/08 10:50:08;;;;;;;9.10;5.00;;;;;;;8.66;42.13;100709.03;4876784;28;101238;-84
2021/03/08 10:52:34;;;;;;;24.83;7.13;;;;;;;8.86;43.42;100698.16;4896249;28;99615;-76
2021/03/08 10:55:00;;;;;;;16.83;4.72;;;;;;;8.70;41.63;100707.25;4880363;28;97015;-73
2021/03/08 10:57:27;;;;;;;7.78;4.35;;;;;;;8.61;41.03;100708.28;4879896;28;97460;-73
2021/03/08 10:59:57;;;;;;;12.47;4.43;;;;;;;8.48;40.53;100712.03;4878908;28;98323;-75
2021/03/08 11:02:24;;;;;;;13.07;4.07;;;;;;;8.74;40.81;100703.66;4863329;28;99764;-74
2021/03/08 11:05:13;;;;;;;8.30;3.55;;;;;;;8.47;38.81;100702.47;4866937;28;96745;-79
2021/03/08 11:07:38;;;;;;;10.37;4.03;;;;;;;8.48;38.90;100710.25;4857632;29;96855;-74
2021/03/08 11:10:06;;;;;;;8.63;3.47;;;;;;;7.96;38.47;100712.94;4856288;28;100994;-74
2021/03/08 11:12:31;;;;;;;8.37;3.60;;;;;;;8.09;39.10;100710.09;4870038;28;101074;-75
2021/03/08 11:14:59;;;;;;;13.48;3.72;;;;;;;8.57;38.39;100699.59;4844017;28;96878;-74
2021/03/08 11:17:34;;;;;;;9.18;3.42;;;;;;;8.68;38.64;100711.63;4860487;28;97087;-74
2021/03/08 11:20:16;;;;;;;9.43;3.37;;;;;;;8.75;37.79;100702.75;4875180;28;97584;-74
2021/03/08 11:22:51;;;;;;;10.93;3.90;;;;;;;8.62;38.63;100712.63;4844131;28;101731;-74
2021/03/08 11:25:33;;;;;;;15.90;3.83;;;;;;;8.59;37.03;100704.81;4876759;28;96691;-75
2021/03/08 11:27:59;;;;;;;;;;;;;;;8.19;35.34;100700.31;4859664;28;96780;-74
2021/03/08 11:30:27;;;;;;;10.32;2.88;;;;;;;8.08;36.60;100707.47;4859317;28;101162;-74